Time;durP1;ratioP1;P1;durP2;ratioP2;P2;SDS_P1;SDS_P2;PMS_P1;PMS_P2;Temp;Humidity;BMP_temperature;BMP_pressure;BME280_temperature;BME280_humidity;BME280_pressure;Samples;Min_cycle;Max_cycle;Signal;HPM_P1;HPM_P2
2023/10/12 00:01:59;;;;;;;4.55;3.00;;;20.00;55.30;;;;;;5059644;28;20248;-76
2023/10/12 00:04:35;;;;;;;3.08;2.70;;;20.00;55.40;;;;;;5059767;28;20194;-76
2023/10/12 00:07:11;;;;;;;3.88;3.10;;;20.00;55.40;;;;;;5060151;28;20244;-76
2023/10/12 00:09:38;;;;;;;3.92;2.75;;;20.00;55.50;;;;;;5059381;28;20244;-76
2023/10/12 00:12:08;;;;;;;3.55;2.92;;;20.00;55.50;;;;;;5060468;28;20569;-76
2023/10/12 00:14:36;;;;;;;4.78;3.08;;;20.00;55.30;;;;;;5059480;28;20210;-76
2023/10/12 00:17:05;;;;;;;4.57;3.05;;;20.00;55.50;;;;;;5059329;28;20198;-76
2023/10/12 00:19:38;;;;;;;3.92;3.10;;;20.00;55.50;;;;;;5059188;28;20314;-76
2023/10/12 00:22:11;;;;;;;2.75;2.55;;;20.00;55.50;;;;;;5059274;28;20195;-76
2023/10/12 00:24:39;;;;;;;5.03;3.00;;;20.00;55.40;;;;;;5060290;28;20190;-76
2023/10/12 00:27:08;;;;;;;4.35;3.13;;;20.00;55.50;;;;;;5059753;28;20551;-76
2023/10/12 00:29:35;;;;;;;4.43;3.30;;;20.00;55.50;;;;;;5058978;28;20219;-76
2023/10/12 00:32:04;;;;;;;3.78;2.72;;;19.90;55.40;;;;;;5058927;28;20630;-76
2023/10/12 00:34:37;;;;;;;3.17;2.88;;;20.00;55.50;;;;;;5042863;28;20313;-77
2023/10/12 00:37:06;;;;;;;3.88;2.80;;;19.90;55.50;;;;;;5060265;28;20214;-77
2023/10/12 00:39:46;;;;;;;3.90;3.10;;;19.90;55.50;;;;;;5058940;28;20214;-77
2023/10/12 00:42:17;;;;;;;3.92;2.88;;;19.90;55.50;;;;;;5059298;28;20191;-77
2023/10/12 00:44:47;;;;;;;4.38;2.97;;;19.90;55.50;;;;;;5042186;28;20194;-77
2023/10/12 00:47:19;;;;;;;2.97;2.58;;;19.90;55.60;;;;;;5058603;28;20641;-77
2023/10/12 00:49:49;;;;;;;3.60;2.90;;;19.90;56.30;;;;;;5058750;28;20218;-77
2023/10/12 00:52:25;;;;;;;3.70;3.20;;;19.90;55.70;;;;;;5058672;28;20286;-77
2023/10/12 00:55:02;;;;;;;7.00;3.63;;;19.90;55.50;;;;;;5058643;28;20216;-77
2023/10/12 00:57:31;;;;;;;3.53;2.75;;;19.80;55.50;;;;;;5058553;28;20201;-77
2023/10/12 01:00:01;;;;;;;5.35;3.08;;;19.80;55.50;;;;;;5058297;28;20697;-77
2023/10/12 01:02:36;;;;;;;4.88;3.22;;;19.90;55.70;;;;;;5058488;28;20237;-77
2023/10/12 01:05:06;;;;;;;4.65;3.42;;;19.80;55.50;;;;;;5058309;28;20190;-77
2023/10/12 01:07:36;;;;;;;4.35;3.13;;;19.80;55.70;;;;;;5057423;28;20209;-77
2023/10/12 01:10:06;;;;;;;3.58;2.83;;;19.80;55.70;;;;;;5058141;28;20215;-77
2023/10/12 01:12:34;;;;;;;3.95;2.90;;;19.80;55.50;;;;;;5058358;28;20301;-77
2023/10/12 01:15:11;;;;;;;4.22;3.30;;;19.80;55.60;;;;;;5057998;28;20217;-77
2023/10/12 01:17:40;;;;;;;4.22;2.80;;;19.80;55.70;;;;;;5058775;28;20199;-76
2023/10/12 01:20:15;;;;;;;2.90;2.67;;;19.70;55.80;;;;;;5058030;28;20230;-76
2023/10/12 01:22:44;;;;;;;3.58;2.80;;;19.80;56.40;;;;;;5058084;28;20198;-76
2023/10/12 01:25:19;;;;;;;4.25;3.30;;;19.70;55.80;;;;;;5057854;28;20187;-76
2023/10/12 01:27:47;;;;;;;4.25;3.25;;;19.70;55.70;;;;;;5057913;28;20206;-76
2023/10/12 01:30:19;;;;;;;3.90;2.95;;;19.70;55.90;;;;;;5058121;28;20214;-76
2023/10/12 01:32:52;;;;;;;4.72;2.88;;;19.70;55.70;;;;;;5076120;28;20198;-76
2023/10/12 01:35:26;;;;;;;5.75;3.00;;;19.70;55.70;;;;;;5057826;28;20242;-76
2023/10/12 01:38:00;;;;;;;3.33;2.88;;;19.70;55.80;;;;;;5057820;28;20187;-76
2023/10/12 01:40:40;;;;;;;4.05;2.88;;;19.70;55.70;;;;;;5057947;28;20715;-76
2023/10/12 01:43:12;;;;;;;3.90;3.00;;;19.70;55.70;;;;;;5057493;28;20187;-76
2023/10/12 01:45:42;;;;;;;3.55;2.80;;;19.70;55.80;;;;;;5057537;28;20548;-76
2023/10/12 01:48:11;;;;;;;3.80;2.90;;;19.70;55.80;;;;;;5057595;28;20556;-76
2023/10/12 01:50:38;;;;;;;3.45;2.90;;;19.70;55.70;;;;;;5057726;28;20309;-76
2023/10/12 01:53:21;;;;;;;4.05;2.70;;;19.70;55.70;;;;;;5057482;28;20244;-76
2023/10/12 01:56:10;;;;;;;3.42;3.13;;;19.70;55.90;;;;;;5075642;28;20189;-76
2023/10/12 01:58:40;;;;;;;3.33;2.90;;;19.60;55.80;;;;;;5057556;28;20206;-76
2023/10/12 02:01:08;;;;;;;4.38;3.30;;;19.60;55.80;;;;;;5040688;28;20218;-76
2023/10/12 02:03:37;;;;;;;3.58;2.55;;;19.60;55.80;;;;;;5075442;28;20205;-76
2023/10/12 02:06:13;;;;;;;3.20;2.90;;;19.60;55.80;;;;;;5057082;28;20199;-76
2023/10/12 02:08:45;;;;;;;3.50;2.70;;;19.60;55.80;;;;;;5057206;28;20201;-76
2023/10/12 02:11:26;;;;;;;4.05;2.90;;;19.60;56.60;;;;;;5057046;28;20253;-76
2023/10/12 02:13:55;;;;;;;4.88;3.00;;;19.60;55.90;;;;;;5057055;28;20669;-76
2023/10/12 02:16:25;;;;;;;3.20;2.90;;;19.60;55.90;;;;;;5058327;28;20190;-76
2023/10/12 02:18:53;;;;;;;4.07;2.92;;;19.60;56.40;;;;;;5075298;28;20175;-76
2023/10/12 02:21:22;;;;;;;3.92;2.95;;;19.60;55.90;;;;;;5041316;28;20198;-76
2023/10/12 02:23:57;;;;;;;3.22;2.92;;;19.60;55.90;;;;;;5057532;28;20281;-76
2023/10/12 02:26:37;;;;;;;3.92;3.15;;;19.60;55.80;;;;;;5056965;28;20201;-76
2023/10/12 02:29:12;;;;;;;4.80;3.28;;;19.50;55.80;;;;;;5056794;28;20209;-76
2023/10/12 02:31:46;;;;;;;3.25;2.90;;;19.60;55.90;;;;;;5056787;28;20186;-76
2023/10/12 02:34:16;;;;;;;3.55;2.90;;;19.60;55.90;;;;;;5056678;28;20210;-76
2023/10/12 02:36:46;;;;;;;4.90;3.10;;;19.60;55.70;;;;;;5056463;28;20216;-76
2023/10/12 02:39:20;;;;;;;4.10;2.85;;;19.50;55.90;;;;;;5056555;28;20246;-76
2023/10/12 02:41:56;;;;;;;4.53;2.85;;;19.50;55.70;;;;;;5056766;28;20632;-76
2023/10/12 02:44:23;;;;;;;4.90;3.30;;;19.50;55.90;;;;;;5056952;28;20183;-76
2023/10/12 02:47:05;;;;;;;4.60;3.08;;;19.50;55.90;;;;;;5056528;28;20209;-76
2023/10/12 02:49:39;;;;;;;3.47;3.05;;;19.50;55.90;;;;;;5057091;28;20214;-76
2023/10/12 02:52:08;;;;;;;4.93;3.03;;;19.50;55.90;;;;;;5057918;28;20194;-76
2023/10/12 02:54:49;;;;;;;3.30;2.80;;;19.50;55.90;;;;;;5056522;28;20692;-76
2023/10/12 02:57:20;;;;;;;5.00;3.20;;;19.50;56.00;;;;;;5056706;28;20187;-76
2023/10/12 02:59:56;;;;;;;4.30;3.13;;;19.50;56.10;;;;;;5056341;28;20231;-76
2023/10/12 03:02:32;;;;;;;3.72;3.22;;;19.50;55.90;;;;;;5056380;28;20559;-76
2023/10/12 03:05:01;;;;;;;4.35;3.17;;;19.50;55.90;;;;;;5056228;28;20577;-76
2023/10/12 03:07:28;;;;;;;3.70;2.95;;;19.50;55.90;;;;;;5074162;28;20198;-76
2023/10/12 03:09:59;;;;;;;4.03;2.90;;;19.50;55.90;;;;;;5056046;28;20218;-76
2023/10/12 03:12:32;;;;;;;4.35;3.15;;;19.50;55.80;;;;;;5056273;28;20194;-76
2023/10/12 03:15:01;;;;;;;4.32;3.30;;;19.40;55.80;;;;;;5056488;28;20703;-76
2023/10/12 03:17:28;;;;;;;4.70;3.10;;;19.50;56.00;;;;;;5046312;28;20206;-76
2023/10/12 03:19:57;;;;;;;3.88;3.08;;;19.50;56.10;;;;;;5078027;28;20217;-76
2023/10/12 03:22:31;;;;;;;3.70;2.85;;;19.50;55.90;;;;;;5056022;28;20249;-76
2023/10/12 03:25:13;;;;;;;3.40;3.10;;;19.50;55.90;;;;;;5056248;28;20194;-76
2023/10/12 03:27:49;;;;;;;4.35;3.00;;;19.60;55.90;;;;;;5056123;28;20198;-76
2023/10/12 03:30:17;;;;;;;4.07;3.20;;;19.60;55.70;;;;;;5057195;28;20234;-76
2023/10/12 03:32:45;;;;;;;4.10;3.45;;;19.70;55.70;;;;;;5039767;28;20618;-76
2023/10/12 03:35:22;;;;;;;3.33;2.90;;;19.70;55.60;;;;;;5055765;28;20210;-76
2023/10/12 03:37:53;;;;;;;4.47;3.13;;;19.70;55.50;;;;;;5055917;28;20194;-76
2023/10/12 03:43:12;;;;;;;4.45;3.08;;;19.70;55.50;;;;;;5042710;28;20190;-76
2023/10/12 03:45:50;;;;;;;3.65;3.10;;;19.80;55.50;;;;;;5057207;28;20541;-76
2023/10/12 03:48:37;;;;;;;3.30;2.80;;;19.80;55.50;;;;;;5055606;28;20204;-76
2023/10/12 03:51:24;;;;;;;3.70;3.20;;;19.80;55.50;;;;;;5056033;28;20630;-76
2023/10/12 03:53:57;;;;;;;3.30;3.00;;;19.80;55.40;;;;;;5073800;28;20240;-76
2023/10/12 03:56:29;;;;;;;4.53;3.15;;;19.80;55.30;;;;;;5055765;28;20195;-76
2023/10/12 03:59:06;;;;;;;4.97;3.15;;;19.80;55.30;;;;;;5092929;22;20229;-81
2023/10/12 04:01:35;;;;;;;3.95;3.38;;;19.80;55.30;;;;;;5053928;28;20210;-82
2023/10/12 04:04:16;;;;;;;3.42;3.03;;;19.80;55.30;;;;;;5053873;28;20202;-81
2023/10/12 04:09:42;;;;;;;3.90;3.10;;;19.80;55.30;;;;;;5053134;28;20223;-81
2023/10/12 04:12:49;;;;;;;3.60;3.10;;;19.80;55.30;;;;;;5053049;28;20261;-81
2023/10/12 04:15:27;;;;;;;4.43;3.47;;;19.80;55.30;;;;;;5052343;28;20713;-81
2023/10/12 04:17:59;;;;;;;3.60;2.92;;;19.80;55.40;;;;;;5053165;28;20529;-81
2023/10/12 04:20:28;;;;;;;5.35;3.30;;;19.70;55.30;;;;;;5053223;28;20211;-82
2023/10/12 04:25:58;;;;;;;3.60;3.15;;;19.70;55.30;;;;;;5052589;28;20303;-82
2023/10/12 04:28:32;;;;;;;3.38;3.08;;;19.70;55.30;;;;;;5053314;28;20200;-82
2023/10/12 04:33:50;;;;;;;3.10;2.80;;;19.70;55.40;;;;;;5052330;28;20183;-82
2023/10/12 04:36:27;;;;;;;3.60;3.30;;;19.70;55.40;;;;;;5054003;28;20261;-82
2023/10/12 04:39:02;;;;;;;3.75;3.22;;;19.70;55.30;;;;;;5053985;28;20282;-82
2023/10/12 04:41:41;;;;;;;3.55;3.25;;;19.70;55.30;;;;;;5056412;28;20592;-82
2023/10/12 04:47:12;;;;;;;3.50;3.17;;;19.70;55.40;;;;;;5000353;28;20669;-82
2023/10/12 04:49:54;;;;;;;3.90;3.00;;;19.70;55.40;;;;;;5000197;28;20343;-82
2023/10/12 04:55:21;;;;;;;5.15;3.20;;;19.60;55.20;;;;;;5052547;28;20285;-82
2023/10/12 04:58:09;;;;;;;5.00;3.08;;;19.60;55.30;;;;;;5057692;28;20198;-82
2023/10/12 05:00:54;;;;;;;3.25;2.97;;;19.60;55.40;;;;;;5056805;28;20219;-82
2023/10/12 05:03:33;;;;;;;3.30;2.95;;;19.60;55.40;;;;;;5057155;28;20704;-82
2023/10/12 05:06:09;;;;;;;3.22;2.92;;;19.60;55.50;;;;;;5041598;28;20199;-81
2023/10/12 05:08:35;;;;;;;3.15;2.80;;;19.60;55.60;;;;;;5055381;28;20194;-81
2023/10/12 05:11:06;;;;;;;4.38;3.13;;;19.60;55.50;;;;;;5055698;28;20310;-81
2023/10/12 05:13:33;;;;;;;4.20;3.10;;;19.60;55.50;;;;;;5056662;28;20612;-81
2023/10/12 05:16:08;;;;;;;3.10;2.80;;;19.60;55.60;;;;;;5056213;28;20269;-82
2023/10/12 05:18:35;;;;;;;3.50;2.80;;;19.60;55.70;;;;;;5057158;28;20187;-82
2023/10/12 05:21:05;;;;;;;3.80;2.90;;;19.60;55.70;;;;;;5056598;28;20246;-82
2023/10/12 05:23:31;;;;;;;3.47;3.00;;;19.60;55.70;;;;;;5056606;28;20201;-82
2023/10/12 05:26:10;;;;;;;3.42;2.85;;;19.60;55.60;;;;;;5057928;28;20237;-81
2023/10/12 05:31:22;;;;;;;3.17;2.88;;;19.50;55.70;;;;;;5054200;28;20695;-82
2023/10/12 05:34:18;;;;;;;6.03;3.22;;;19.50;55.60;;;;;;5056533;28;20253;-82
2023/10/12 05:36:45;;;;;;;3.42;3.13;;;19.50;55.50;;;;;;5056306;28;20218;-82
2023/10/12 05:39:16;;;;;;;3.95;2.58;;;19.50;55.60;;;;;;5055828;28;20219;-83
2023/10/12 05:41:44;;;;;;;4.43;3.25;;;19.50;55.60;;;;;;5056073;28;20253;-83
2023/10/12 05:44:15;;;;;;;4.20;3.15;;;19.50;55.80;;;;;;5039529;28;20257;-83
2023/10/12 05:46:51;;;;;;;3.30;2.75;;;19.50;55.80;;;;;;5056058;28;20282;-83
2023/10/12 05:49:23;;;;;;;3.35;3.05;;;19.60;55.80;;;;;;5055742;28;20223;-83
2023/10/12 05:51:50;;;;;;;4.32;3.17;;;19.60;55.70;;;;;;5055780;28;20223;-83
2023/10/12 05:54:20;;;;;;;3.60;2.97;;;19.60;55.70;;;;;;5056902;28;20241;-83
2023/10/12 05:56:49;;;;;;;3.00;2.70;;;19.60;55.50;;;;;;5056112;28;20282;-81
2023/10/12 05:59:18;;;;;;;3.08;2.78;;;19.60;55.70;;;;;;5054751;28;20234;-83
2023/10/12 06:01:48;;;;;;;3.40;2.95;;;19.70;55.60;;;;;;5054312;28;20199;-82
2023/10/12 06:04:16;;;;;;;4.60;3.22;;;19.60;55.50;;;;;;5055528;28;20198;-81
2023/10/12 06:06:43;;;;;;;4.18;3.03;;;19.70;55.50;;;;;;5038560;28;20195;-81
2023/10/12 06:09:12;;;;;;;3.58;3.22;;;19.70;55.50;;;;;;5054625;28;20195;-81
2023/10/12 06:11:41;;;;;;;3.25;2.95;;;19.70;55.50;;;;;;5055198;28;20195;-82
2023/10/12 06:14:09;;;;;;;3.42;2.95;;;19.60;55.50;;;;;;5054987;28;20203;-81
2023/10/12 06:16:40;;;;;;;4.32;3.38;;;19.70;55.50;;;;;;5055861;28;20254;-82
2023/10/12 06:19:18;;;;;;;3.80;3.05;;;19.70;55.50;;;;;;5055786;28;20187;-81
2023/10/12 06:21:50;;;;;;;4.43;3.30;;;19.70;55.50;;;;;;5055336;28;20618;-81
2023/10/12 06:24:21;;;;;;;4.60;3.20;;;19.70;55.50;;;;;;5055283;28;20203;-82
2023/10/12 06:26:49;;;;;;;4.32;3.20;;;19.70;55.50;;;;;;5055225;28;20598;-81
2023/10/12 06:29:25;;;;;;;3.38;3.08;;;19.70;55.50;;;;;;5054535;28;20222;-81
2023/10/12 06:31:54;;;;;;;4.75;3.45;;;19.80;55.50;;;;;;5054387;28;20187;-82
2023/10/12 06:34:23;;;;;;;3.50;3.20;;;19.80;55.50;;;;;;5054205;28;20290;-81
2023/10/12 06:36:57;;;;;;;3.75;3.10;;;19.80;55.50;;;;;;5053978;28;20218;-82
2023/10/12 06:42:25;;;;;;;5.00;3.00;;;19.80;55.50;;;;;;5041420;28;20191;-81
2023/10/12 06:44:51;;;;;;;4.57;3.05;;;19.90;55.60;;;;;;5053873;28;20230;-81
2023/10/12 06:47:41;;;;;;;3.28;2.97;;;19.80;55.50;;;;;;5053180;28;20192;-82
2023/10/12 06:50:15;;;;;;;3.42;3.03;;;19.90;55.50;;;;;;5053756;28;20719;-82
2023/10/12 06:52:42;;;;;;;3.13;2.80;;;19.90;55.50;;;;;;5057078;28;20192;-82
2023/10/12 06:55:09;;;;;;;3.55;2.92;;;20.00;55.90;;;;;;5059416;28;20214;-82
2023/10/12 06:57:42;;;;;;;4.43;2.83;;;20.00;55.60;;;;;;5060495;28;20227;-82
2023/10/12 07:00:19;;;;;;;4.68;3.17;;;19.90;55.40;;;;;;5053616;28;20246;-82
2023/10/12 07:02:51;;;;;;;4.03;2.97;;;20.00;55.50;;;;;;5054337;28;20188;-82
2023/10/12 07:05:28;;;;;;;4.85;3.15;;;20.10;55.50;;;;;;5037058;28;20290;-82
2023/10/12 07:07:58;;;;;;;3.75;2.92;;;20.10;55.40;;;;;;5053448;28;20198;-81
2023/10/12 07:10:31;;;;;;;3.83;3.28;;;20.20;55.30;;;;;;5053471;28;20593;-81
2023/10/12 07:13:00;;;;;;;3.65;3.20;;;20.20;55.90;;;;;;5054242;28;20195;-81
2023/10/12 07:15:32;;;;;;;3.65;3.33;;;20.20;55.10;;;;;;5053535;28;20233;-82
2023/10/12 07:18:06;;;;;;;3.03;2.78;;;20.30;55.10;;;;;;5053534;28;20249;-82
2023/10/12 07:20:46;;;;;;;3.85;3.40;;;20.30;55.00;;;;;;5053545;28;20219;-82
2023/10/12 07:23:15;;;;;;;4.13;3.42;;;20.40;55.00;;;;;;5053480;28;20199;-83
2023/10/12 07:25:45;;;;;;;4.57;3.33;;;20.50;55.00;;;;;;5053840;28;20606;-83
2023/10/12 07:28:18;;;;;;;4.90;3.50;;;20.50;55.00;;;;;;5053280;28;20333;-83
2023/10/12 07:31:05;;;;;;;3.72;3.42;;;20.50;55.00;;;;;;5053429;28;20218;-83
2023/10/12 07:33:32;;;;;;;4.43;3.30;;;20.60;54.90;;;;;;5053363;28;20188;-83
2023/10/12 07:36:34;;;;;;;3.90;3.50;;;20.70;54.90;;;;;;5053138;28;20269;-83
2023/10/12 07:39:16;;;;;;;3.45;3.15;;;20.80;54.60;;;;;;5052848;28;20270;-82
2023/10/12 07:41:53;;;;;;;3.53;2.97;;;20.80;54.50;;;;;;5053015;28;20199;-82
2023/10/12 07:44:22;;;;;;;3.20;2.90;;;20.90;54.40;;;;;;5053205;28;20203;-82
2023/10/12 07:46:49;;;;;;;3.40;3.10;;;20.90;54.20;;;;;;5053679;28;20709;-82
2023/10/12 07:49:36;;;;;;;5.40;3.40;;;21.00;54.30;;;;;;5052754;28;20302;-82
2023/10/12 07:52:14;;;;;;;4.85;3.40;;;21.00;54.20;;;;;;5052875;28;20665;-81
2023/10/12 07:54:53;;;;;;;5.40;3.13;;;21.10;54.20;;;;;;5052808;28;20222;-81
2023/10/12 07:57:22;;;;;;;3.33;3.03;;;21.00;54.10;;;;;;5052626;28;20183;-82
2023/10/12 07:59:58;;;;;;;3.95;3.22;;;21.00;54.00;;;;;;5052464;28;20215;-82
2023/10/12 08:02:43;;;;;;;4.70;3.10;;;21.10;54.10;;;;;;5052644;28;20205;-82
2023/10/12 08:05:16;;;;;;;3.33;3.03;;;21.10;54.10;;;;;;5052744;28;20298;-82
2023/10/12 08:07:59;;;;;;;3.10;2.70;;;21.10;54.00;;;;;;5054159;28;20188;-81
2023/10/12 08:10:56;;;;;;;3.25;2.92;;;21.10;54.00;;;;;;5054463;28;20215;-82
2023/10/12 08:13:26;;;;;;;3.35;2.80;;;21.10;54.00;;;;;;5054589;28;20202;-81
2023/10/12 08:15:58;;;;;;;3.08;2.78;;;21.10;54.00;;;;;;5054994;28;20211;-81
2023/10/12 08:21:17;;;;;;;3.40;3.10;;;21.10;53.90;;;;;;5056738;28;20211;-81
2023/10/12 08:23:49;;;;;;;3.53;3.10;;;21.10;53.90;;;;;;5057272;28;20199;-81
2023/10/12 08:26:34;;;;;;;3.22;2.72;;;21.10;53.90;;;;;;5058330;28;20190;-81
2023/10/12 08:29:09;;;;;;;3.30;3.00;;;21.10;53.90;;;;;;5057600;28;20206;-81
2023/10/12 08:31:43;;;;;;;3.95;2.85;;;21.10;53.90;;;;;;5057596;28;20665;-82
2023/10/12 08:37:17;;;;;;;3.65;3.08;;;21.20;53.90;;;;;;5055989;28;20621;-82
2023/10/12 08:39:52;;;;;;;4.03;2.70;;;21.10;53.90;;;;;;5057634;28;20227;-82
2023/10/12 08:42:55;;;;;;;4.13;3.20;;;21.20;53.90;;;;;;5056741;28;20206;-82
2023/10/12 08:45:23;;;;;;;2.88;2.65;;;21.20;54.00;;;;;;5056549;28;20636;-82
2023/10/12 08:47:53;;;;;;;4.07;2.78;;;21.20;53.90;;;;;;5056517;28;20229;-81
2023/10/12 08:53:05;;;;;;;3.05;2.75;;;21.10;53.80;;;;;;5056161;28;20274;-81
2023/10/12 08:55:33;;;;;;;3.70;3.28;;;21.20;53.90;;;;;;5055972;28;20563;-81
2023/10/12 08:58:11;;;;;;;3.83;2.78;;;21.20;53.90;;;;;;5055936;28;20208;-82
2023/10/12 09:00:44;;;;;;;2.50;2.30;;;21.20;53.90;;;;;;5068387;28;20284;-82
2023/10/12 09:03:24;;;;;;;3.00;2.70;;;21.20;53.80;;;;;;5072396;28;20222;-82
2023/10/12 09:05:52;;;;;;;2.90;2.70;;;21.20;53.80;;;;;;5075641;28;20194;-82
2023/10/12 09:11:14;;;;;;;3.13;2.80;;;21.20;53.70;;;;;;5061633;28;20211;-82
2023/10/12 09:13:45;;;;;;;3.97;3.10;;;21.20;54.30;;;;;;5061899;28;20304;-82
2023/10/12 09:16:14;;;;;;;3.10;2.80;;;21.30;53.80;;;;;;5059550;28;20306;-82
2023/10/12 09:18:46;;;;;;;3.00;2.70;;;21.20;54.30;;;;;;5057266;28;20298;-82
2023/10/12 09:21:27;;;;;;;3.08;2.78;;;21.30;53.80;;;;;;5056327;28;20223;-81
2023/10/12 09:24:05;;;;;;;3.33;3.00;;;21.30;53.60;;;;;;5055428;28;20274;-81
2023/10/12 09:26:34;;;;;;;3.70;3.20;;;21.30;53.70;;;;;;5055374;28;20192;-81
2023/10/12 09:29:22;;;;;;;3.63;3.20;;;21.30;53.70;;;;;;5054413;28;20199;-81
2023/10/12 09:32:12;;;;;;;3.13;2.83;;;21.30;53.70;;;;;;5055091;28;20203;-81
2023/10/12 09:34:42;;;;;;;3.47;3.00;;;21.30;53.60;;;;;;5055161;28;20223;-81
2023/10/12 09:37:16;;;;;;;3.58;2.67;;;21.30;53.70;;;;;;5054812;28;20222;-81
2023/10/12 09:39:45;;;;;;;3.35;2.88;;;21.30;53.70;;;;;;5055530;28;20306;-82
2023/10/12 09:42:22;;;;;;;3.10;2.80;;;21.30;53.70;;;;;;5055067;28;20322;-82
2023/10/12 09:44:52;;;;;;;3.00;2.72;;;21.30;53.70;;;;;;5054756;28;20206;-82
2023/10/12 09:47:23;;;;;;;3.00;2.80;;;21.30;53.60;;;;;;5055177;28;20191;-82
2023/10/12 09:49:55;;;;;;;3.50;3.10;;;21.30;53.60;;;;;;5055142;28;20246;-82
2023/10/12 09:52:24;;;;;;;3.55;2.78;;;21.30;53.60;;;;;;5042794;28;20222;-82
2023/10/12 09:54:56;;;;;;;2.95;2.75;;;21.40;53.60;;;;;;5059227;28;20582;-82
2023/10/12 09:57:26;;;;;;;3.20;2.88;;;21.40;53.50;;;;;;5058633;28;20271;-82
2023/10/12 09:59:53;;;;;;;3.63;2.80;;;21.40;53.40;;;;;;5109070;22;20590;-78
2023/10/12 10:02:28;;;;;;;3.03;2.72;;;21.40;53.50;;;;;;5075316;28;20590;-78
2023/10/12 10:05:01;;;;;;;3.47;2.70;;;21.40;53.40;;;;;;5074159;28;20714;-78
2023/10/12 10:07:32;;;;;;;3.30;2.97;;;21.40;53.30;;;;;;5074084;28;20187;-78
2023/10/12 10:10:01;;;;;;;3.30;3.00;;;21.40;53.20;;;;;;5073883;28;20230;-78
2023/10/12 10:12:35;;;;;;;3.28;2.90;;;21.40;53.40;;;;;;5074047;28;20195;-78
2023/10/12 10:15:10;;;;;;;2.83;2.63;;;21.40;53.40;;;;;;5073718;28;20182;-78
2023/10/12 10:17:46;;;;;;;2.80;2.60;;;21.40;53.40;;;;;;5073749;28;20248;-78
2023/10/12 10:23:19;;;;;;;3.22;2.60;;;21.40;53.50;;;;;;5016613;28;20630;-78
2023/10/12 10:25:56;;;;;;;3.05;2.72;;;21.40;53.40;;;;;;5016890;28;20236;-78
2023/10/12 10:28:29;;;;;;;3.17;2.80;;;21.40;53.50;;;;;;5045213;28;20205;-78
2023/10/12 10:30:59;;;;;;;3.00;2.80;;;21.30;53.40;;;;;;5073494;28;20229;-78
2023/10/12 10:33:28;;;;;;;3.65;3.22;;;21.40;53.40;;;;;;5076944;28;20214;-78
2023/10/12 10:35:57;;;;;;;2.90;2.65;;;21.40;53.50;;;;;;5081320;28;20194;-78
2023/10/12 10:38:25;;;;;;;2.80;2.60;;;21.40;53.50;;;;;;5074863;28;20214;-78
2023/10/12 10:41:05;;;;;;;3.30;2.70;;;21.40;53.20;;;;;;5073782;28;20248;-78
2023/10/12 10:43:37;;;;;;;3.22;2.70;;;21.40;53.30;;;;;;5073360;28;20206;-78
2023/10/12 10:46:06;;;;;;;3.10;2.80;;;21.40;53.20;;;;;;5073282;28;20199;-78
2023/10/12 10:48:36;;;;;;;4.22;3.00;;;21.40;53.20;;;;;;5073140;28;20198;-78
2023/10/12 10:51:07;;;;;;;2.63;2.42;;;21.40;53.10;;;;;;5073212;28;20226;-78
2023/10/12 10:53:37;;;;;;;3.38;2.80;;;21.40;53.10;;;;;;5073162;28;20187;-77
2023/10/12 10:56:14;;;;;;;2.72;2.50;;;21.50;53.10;;;;;;5057718;28;20233;-77
2023/10/12 10:58:45;;;;;;;2.97;2.60;;;21.40;52.90;;;;;;5072865;28;20213;-77
2023/10/12 11:01:14;;;;;;;2.90;2.60;;;21.50;53.00;;;;;;5073160;28;20225;-77
2023/10/12 11:03:41;;;;;;;3.28;2.97;;;21.50;52.90;;;;;;5073230;28;20207;-77
2023/10/12 11:06:21;;;;;;;3.00;2.70;;;21.50;52.90;;;;;;5072910;28;20276;-77
2023/10/12 11:09:02;;;;;;;2.90;2.60;;;21.50;52.80;;;;;;5074576;28;20186;-77
2023/10/12 11:11:37;;;;;;;3.35;2.88;;;21.50;52.70;;;;;;5072782;28;20251;-77
2023/10/12 11:14:05;;;;;;;3.20;2.90;;;21.60;52.80;;;;;;5072812;28;20186;-77
2023/10/12 11:16:33;;;;;;;2.83;2.60;;;21.60;52.70;;;;;;5073451;28;20260;-77
2023/10/12 11:19:00;;;;;;;2.90;2.60;;;21.60;52.60;;;;;;5073910;28;20191;-77
2023/10/12 11:21:27;;;;;;;3.30;3.00;;;21.60;52.50;;;;;;5072985;28;20207;-77
2023/10/12 11:23:59;;;;;;;3.05;2.70;;;21.60;52.50;;;;;;5072759;28;20202;-77
2023/10/12 11:26:26;;;;;;;3.45;2.55;;;21.60;52.50;;;;;;5072727;28;20199;-77
2023/10/12 11:29:03;;;;;;;2.92;2.45;;;21.60;52.40;;;;;;5072616;28;20297;-77
2023/10/12 11:31:32;;;;;;;2.90;2.60;;;21.60;52.40;;;;;;5073308;28;20194;-77
2023/10/12 11:33:59;;;;;;;2.80;2.60;;;21.70;52.50;;;;;;5072702;28;20203;-77
2023/10/12 11:36:26;;;;;;;4.60;3.22;;;21.70;52.40;;;;;;5072469;28;20585;-77
2023/10/12 11:39:00;;;;;;;2.80;2.60;;;21.70;52.30;;;;;;5073940;28;20629;-77
2023/10/12 11:41:27;;;;;;;3.05;2.78;;;21.70;52.20;;;;;;5072907;28;20214;-77
2023/10/12 11:43:57;;;;;;;3.03;2.72;;;21.70;52.30;;;;;;5073939;28;20199;-77
2023/10/12 11:46:25;;;;;;;2.67;2.47;;;21.70;52.10;;;;;;5072577;28;20320;-77
2023/10/12 11:49:05;;;;;;;2.58;2.38;;;21.70;52.10;;;;;;5072448;28;20201;-77
2023/10/12 11:51:39;;;;;;;3.03;2.40;;;21.80;52.10;;;;;;5075016;28;20208;-77
2023/10/12 11:54:07;;;;;;;3.22;2.47;;;21.80;52.10;;;;;;5077768;28;20182;-77
2023/10/12 11:56:43;;;;;;;2.58;2.38;;;21.70;52.10;;;;;;5076795;28;20211;-77
2023/10/12 11:59:26;;;;;;;2.63;2.42;;;21.80;52.10;;;;;;5076668;28;20206;-77
2023/10/12 12:01:56;;;;;;;2.65;2.42;;;21.80;52.10;;;;;;5060833;28;20260;-77
2023/10/12 12:04:31;;;;;;;2.60;2.40;;;21.80;52.10;;;;;;5077577;28;20672;-77
2023/10/12 12:06:59;;;;;;;2.53;2.33;;;21.80;52.00;;;;;;5060855;28;20202;-77
2023/10/12 12:09:28;;;;;;;3.08;2.47;;;21.80;52.00;;;;;;5076650;28;20268;-77
2023/10/12 12:11:55;;;;;;;2.80;2.50;;;21.80;52.00;;;;;;5076435;28;20227;-77
2023/10/12 12:14:22;;;;;;;2.83;2.47;;;21.80;52.00;;;;;;5076166;28;20195;-77
2023/10/12 12:16:49;;;;;;;2.67;2.47;;;21.80;52.00;;;;;;5076073;28;20798;-77
2023/10/12 12:19:23;;;;;;;3.05;2.75;;;21.80;51.90;;;;;;5075950;28;20310;-77
2023/10/12 12:21:52;;;;;;;2.83;2.60;;;21.80;51.90;;;;;;5076921;28;20531;-77
2023/10/12 12:24:24;;;;;;;2.90;2.53;;;21.80;51.90;;;;;;5075979;28;20201;-77
2023/10/12 12:26:52;;;;;;;2.67;2.47;;;21.80;52.10;;;;;;5075913;28;20198;-77
2023/10/12 12:29:24;;;;;;;3.33;2.63;;;21.80;51.90;;;;;;5076058;28;20218;-77
2023/10/12 12:31:51;;;;;;;3.10;2.80;;;21.80;51.90;;;;;;5076853;28;20207;-77
2023/10/12 12:34:38;;;;;;;2.22;2.05;;;21.80;51.90;;;;;;5075849;28;20205;-77
2023/10/12 12:37:06;;;;;;;2.50;2.30;;;21.80;51.90;;;;;;5075620;28;20517;-77
2023/10/12 12:39:34;;;;;;;2.70;2.50;;;21.80;51.90;;;;;;5075653;28;20588;-77
2023/10/12 12:42:01;;;;;;;2.22;2.13;;;21.80;52.00;;;;;;5076642;28;20213;-77
2023/10/12 12:44:28;;;;;;;2.70;2.50;;;21.80;51.90;;;;;;5075642;28;20241;-77
2023/10/12 12:46:56;;;;;;;2.58;2.38;;;21.80;51.90;;;;;;5075295;28;20624;-77
2023/10/12 12:49:24;;;;;;;3.45;2.55;;;21.80;51.90;;;;;;5075364;28;20284;-77
2023/10/12 12:51:51;;;;;;;2.60;2.40;;;21.80;52.00;;;;;;5075629;28;20198;-77
2023/10/12 12:54:19;;;;;;;2.90;2.45;;;21.80;52.60;;;;;;5076478;28;20289;-77
2023/10/12 12:56:46;;;;;;;2.50;2.30;;;21.90;52.10;;;;;;5075132;28;20267;-77
2023/10/12 12:59:13;;;;;;;2.50;2.30;;;21.80;52.00;;;;;;5075010;28;20219;-77
2023/10/12 13:01:41;;;;;;;3.50;2.72;;;21.80;52.10;;;;;;5075587;28;20298;-77
2023/10/12 13:04:10;;;;;;;3.17;2.90;;;21.80;52.30;;;;;;5074729;28;20224;-77
2023/10/12 13:06:38;;;;;;;3.10;2.58;;;21.80;52.30;;;;;;5075175;28;20248;-77
2023/10/12 13:09:05;;;;;;;2.53;2.33;;;21.70;52.30;;;;;;5075019;28;20250;-77
2023/10/12 13:11:33;;;;;;;3.05;2.83;;;21.70;52.40;;;;;;5075109;28;20203;-77
2023/10/12 13:14:00;;;;;;;3.00;2.70;;;21.70;52.30;;;;;;5075074;28;20305;-77
2023/10/12 13:16:27;;;;;;;2.70;2.50;;;21.70;52.30;;;;;;5075157;28;20227;-77
2023/10/12 13:18:55;;;;;;;2.75;2.55;;;21.70;52.30;;;;;;5074835;28;20199;-77
2023/10/12 13:21:23;;;;;;;2.50;2.30;;;21.80;52.30;;;;;;5074939;28;20246;-77
2023/10/12 13:23:51;;;;;;;2.67;2.47;;;21.80;52.20;;;;;;5074942;28;20226;-77
2023/10/12 13:26:19;;;;;;;2.72;2.42;;;21.80;52.20;;;;;;5076012;28;20214;-77
2023/10/12 13:28:48;;;;;;;3.20;2.53;;;21.80;52.10;;;;;;5074755;28;20222;-77
2023/10/12 13:31:16;;;;;;;2.55;2.35;;;21.90;52.10;;;;;;5074816;28;20228;-77
2023/10/12 13:33:43;;;;;;;2.70;2.42;;;21.90;52.10;;;;;;5074851;28;20199;-77
2023/10/12 13:36:10;;;;;;;2.92;2.65;;;21.90;52.00;;;;;;5074627;28;20201;-77
2023/10/12 13:38:37;;;;;;;2.70;2.50;;;21.90;51.90;;;;;;5074524;28;20246;-77
2023/10/12 13:41:05;;;;;;;2.50;2.30;;;22.00;51.80;;;;;;5076077;28;20681;-77
2023/10/12 13:43:32;;;;;;;2.80;2.60;;;22.00;51.80;;;;;;5075608;28;20241;-77
2023/10/12 13:46:07;;;;;;;2.67;2.47;;;22.00;52.40;;;;;;5074321;28;20191;-77
2023/10/12 13:48:37;;;;;;;2.80;2.60;;;22.00;51.80;;;;;;5074432;28;20277;-77
2023/10/12 13:51:08;;;;;;;2.75;2.53;;;22.00;51.80;;;;;;5074272;28;20246;-77
2023/10/12 13:53:36;;;;;;;2.67;2.47;;;22.10;51.80;;;;;;5074180;28;20252;-77